createdAt,value
2019-03-22T00:00:18.395Z,56194.07
2019-03-22T00:02:49.184Z,56193.05
2019-03-22T00:05:19.870Z,56212.58
2019-03-22T00:07:51.428Z,56174.54
2019-03-22T00:10:22.122Z,56213.61
2019-03-22T00:12:53.156Z,56225.95
2019-03-22T00:15:24.091Z,56203.33
2019-03-22T00:17:54.784Z,56185.85
2019-03-22T00:20:25.443Z,56204.36
2019-03-22T00:22:56.181Z,56217.72
2019-03-22T00:25:26.865Z,56190.99
2019-03-22T00:27:58.158Z,56193.05
2019-03-22T00:30:29.385Z,56212.58
2019-03-22T00:33:00.112Z,56205.38
2019-03-22T00:35:31.084Z,56193.05
2019-03-22T00:38:02.069Z,56201.27
2019-03-22T00:40:32.831Z,56216.70
2019-03-22T00:43:04.128Z,56204.36
2019-03-22T00:45:34.813Z,56214.64
2019-03-22T00:48:05.837Z,56190.99
2019-03-22T00:50:36.813Z,56224.92
2019-03-22T00:53:07.772Z,56216.70
2019-03-22T00:55:38.487Z,56175.56
2019-03-22T00:58:09.527Z,56203.33
2019-03-22T01:00:40.609Z,56203.33
2019-03-22T01:03:11.328Z,56211.55
2019-03-22T01:05:42.179Z,56211.55
2019-03-22T01:08:13.168Z,56214.64
2019-03-22T01:10:44.224Z,56197.16
2019-03-22T01:13:15.099Z,56187.90
2019-03-22T01:15:45.767Z,56212.58
2019-03-22T01:18:16.551Z,56212.58
2019-03-22T01:20:47.239Z,56201.27
2019-03-22T01:23:17.968Z,56223.89
2019-03-22T01:25:48.655Z,56177.62
2019-03-22T01:28:19.337Z,56214.64
2019-03-22T01:30:50.433Z,56201.27
2019-03-22T01:33:21.142Z,56223.89
2019-03-22T01:35:51.824Z,56197.16
2019-03-22T01:38:22.542Z,56218.75
2019-03-22T01:40:53.267Z,56196.13
2019-03-22T01:43:24.050Z,56242.40
2019-03-22T01:45:54.764Z,56206.41
2019-03-22T01:48:25.416Z,56205.38
2019-03-22T01:50:56.351Z,56172.48
2019-03-22T01:53:27.079Z,56222.87
2019-03-22T01:55:58.081Z,56203.33
2019-03-22T01:58:28.820Z,56152.94
2019-03-22T02:00:59.514Z,56189.96
2019-03-22T02:03:30.238Z,56198.19
2019-03-22T02:06:00.945Z,56225.95
2019-03-22T02:08:31.638Z,56204.36
2019-03-22T02:11:02.359Z,56209.50
2019-03-22T02:13:33.034Z,56193.05
2019-03-22T02:16:04.160Z,56180.71
2019-03-22T02:18:34.821Z,56217.72
2019-03-22T02:21:05.785Z,56194.07
2019-03-22T02:23:36.479Z,56174.54
2019-03-22T02:26:07.323Z,56201.27
2019-03-22T02:28:38.011Z,56213.61
2019-03-22T02:31:08.747Z,56242.40
2019-03-22T02:33:39.435Z,56219.78
2019-03-22T02:36:10.148Z,56187.90
2019-03-22T02:38:40.877Z,56198.19
2019-03-22T02:41:11.543Z,56176.59
2019-03-22T02:43:42.255Z,56217.72
2019-03-22T02:46:12.920Z,56217.72
2019-03-22T02:48:44.146Z,56225.95
2019-03-22T02:51:15.054Z,56224.92
2019-03-22T02:53:45.759Z,56182.76
2019-03-22T02:56:16.486Z,56202.30
2019-03-22T02:58:47.751Z,56199.21
2019-03-22T03:01:18.502Z,56225.95
2019-03-22T03:03:49.158Z,56213.61
2019-03-22T03:06:19.836Z,56230.06
2019-03-22T03:08:50.898Z,56214.64
2019-03-22T03:11:21.552Z,56211.55
2019-03-22T03:13:52.484Z,56213.61
2019-03-22T03:16:23.219Z,56219.78
2019-03-22T03:18:54.247Z,56248.57
2019-03-22T03:21:24.920Z,56231.09
2019-03-22T03:23:55.667Z,56215.67
2019-03-22T03:26:26.349Z,56209.50
2019-03-22T03:28:57.413Z,56204.36
2019-03-22T03:31:28.109Z,56213.61
2019-03-22T03:33:58.867Z,56237.26
2019-03-22T03:36:29.548Z,56244.46
2019-03-22T03:39:00.240Z,56244.46
2019-03-22T03:41:30.907Z,56260.91
2019-03-22T03:44:01.686Z,56230.06
2019-03-22T03:46:32.335Z,56211.55
2019-03-22T03:49:03.032Z,56268.11
2019-03-22T03:51:39.788Z,56233.15
2019-03-22T03:54:10.522Z,56225.95
2019-03-22T03:56:41.239Z,56207.44
2019-03-22T03:59:12.373Z,56255.77
2019-03-22T04:01:43.078Z,56201.27
2019-03-22T04:04:13.736Z,56236.23
2019-03-22T04:06:44.463Z,56242.40
2019-03-22T04:09:15.145Z,56218.75
2019-03-22T04:11:45.841Z,56258.86
2019-03-22T04:14:16.950Z,56212.58
2019-03-22T04:16:47.688Z,56250.63
2019-03-22T04:19:19.087Z,56244.46
2019-03-22T04:21:49.761Z,56249.60
2019-03-22T04:24:20.478Z,56236.23
2019-03-22T04:26:51.159Z,56207.44
2019-03-22T04:29:22.168Z,56225.95
2019-03-22T04:31:52.878Z,56210.52
2019-03-22T04:34:23.897Z,56225.95
2019-03-22T04:36:54.612Z,56255.77
2019-03-22T04:39:25.628Z,56223.89
2019-03-22T04:41:56.345Z,56250.63
2019-03-22T04:44:27.491Z,56212.58
2019-03-22T04:46:58.324Z,56244.46
2019-03-22T04:49:29.960Z,56221.84
2019-03-22T04:52:00.839Z,56221.84
2019-03-22T04:54:34.728Z,56225.95
2019-03-22T04:57:07.758Z,56219.78
2019-03-22T04:59:39.863Z,56257.83
2019-03-22T05:02:11.763Z,56246.52
2019-03-22T05:04:45.277Z,56231.09
2019-03-22T05:07:16.393Z,56247.54
2019-03-22T05:09:47.945Z,56260.91
2019-03-22T05:12:21.473Z,56219.78
2019-03-22T05:14:53.462Z,56240.34
2019-03-22T05:17:25.385Z,56221.84
2019-03-22T05:19:59.118Z,56247.54
2019-03-22T05:22:31.736Z,56249.60
2019-03-22T05:25:04.819Z,56203.33
2019-03-22T05:27:37.452Z,56258.86
2019-03-22T05:30:11.536Z,56199.21
2019-03-22T05:32:42.574Z,56211.55
2019-03-22T05:35:13.624Z,56196.13
2019-03-22T05:37:44.606Z,56235.20
2019-03-22T05:40:15.304Z,56235.20
2019-03-22T05:42:45.970Z,56228.01
2019-03-22T05:45:16.893Z,56226.98
2019-03-22T05:47:47.894Z,56240.34
2019-03-22T05:50:19.127Z,56202.30
2019-03-22T05:52:49.765Z,56255.77
2019-03-22T05:55:20.453Z,56214.64
2019-03-22T05:57:51.147Z,56271.20
2019-03-22T06:00:22.428Z,56200.24
2019-03-22T06:02:53.173Z,56215.67
2019-03-22T06:05:23.898Z,56247.54
2019-03-22T06:07:54.573Z,56209.50
2019-03-22T06:10:25.229Z,56217.72
2019-03-22T06:12:55.910Z,56219.78
2019-03-22T06:15:26.609Z,56179.68
2019-03-22T06:17:57.591Z,56208.47
2019-03-22T06:20:28.251Z,56188.93
2019-03-22T06:22:58.919Z,56200.24
2019-03-22T06:25:29.632Z,56203.33
2019-03-22T06:28:00.715Z,56161.17
2019-03-22T06:30:31.385Z,56214.64
2019-03-22T06:33:02.246Z,56200.24
2019-03-22T06:35:33.256Z,56216.70
2019-03-22T06:38:04.040Z,56207.44
2019-03-22T06:40:34.694Z,56214.64
2019-03-22T06:43:05.673Z,56213.61
2019-03-22T06:45:36.717Z,56198.19
2019-03-22T06:48:07.779Z,56205.38
2019-03-22T06:50:38.772Z,56190.99
2019-03-22T06:53:09.463Z,56185.85
2019-03-22T06:55:40.966Z,56188.93
2019-03-22T06:58:11.856Z,56164.25
2019-03-22T07:00:42.846Z,56190.99
2019-03-22T07:03:13.598Z,56167.34
2019-03-22T07:05:44.723Z,56211.55
2019-03-22T07:08:15.645Z,56228.01
2019-03-22T07:10:46.266Z,56188.93
2019-03-22T07:13:16.967Z,56215.67
2019-03-22T07:15:47.607Z,56224.92
2019-03-22T07:18:18.724Z,56172.48
2019-03-22T07:20:49.806Z,56196.13
2019-03-22T07:23:20.474Z,56207.44
2019-03-22T07:25:51.678Z,56190.99
2019-03-22T07:28:22.476Z,56187.90
2019-03-22T07:30:53.158Z,56174.54
2019-03-22T07:33:24.370Z,56153.97
2019-03-22T07:35:55.096Z,56157.05
2019-03-22T07:38:25.875Z,56145.75
2019-03-22T07:40:56.559Z,56176.59
2019-03-22T07:43:27.185Z,56173.51
2019-03-22T07:45:57.898Z,56171.45
2019-03-22T07:48:28.740Z,56173.51
2019-03-22T07:50:59.858Z,56162.20
2019-03-22T07:53:30.814Z,56181.73
2019-03-22T07:56:01.625Z,56182.76
2019-03-22T07:58:32.865Z,56185.85
2019-03-22T08:01:03.712Z,56178.65
2019-03-22T08:03:34.427Z,56148.83
2019-03-22T08:07:11.165Z,56160.14
2019-03-22T08:09:42.746Z,56143.69
2019-03-22T08:12:13.413Z,56150.89
2019-03-22T08:14:44.121Z,56156.03
2019-03-22T08:17:15.116Z,56127.23
2019-03-22T08:19:46.130Z,56151.91
2019-03-22T08:22:16.792Z,56141.63
2019-03-22T08:24:47.519Z,56156.03
2019-03-22T08:27:18.414Z,56117.98
2019-03-22T08:29:49.208Z,56137.52
2019-03-22T08:32:19.879Z,56116.95
2019-03-22T08:34:50.693Z,56137.52
2019-03-22T08:37:23.599Z,56143.69
2019-03-22T08:39:55.909Z,56127.23
2019-03-22T08:42:27.189Z,56114.90
2019-03-22T08:44:59.014Z,56110.79
2019-03-22T08:47:34.315Z,56084.05
2019-03-22T08:50:02.590Z,56104.62
2019-03-22T08:52:33.633Z,56104.62
2019-03-22T08:55:04.361Z,56112.84
2019-03-22T08:57:35.208Z,56098.45
2019-03-22T09:00:07.685Z,56088.16
2019-03-22T09:02:38.725Z,56098.45
2019-03-22T09:05:09.933Z,56088.16
2019-03-22T09:07:41.081Z,56132.38
2019-03-22T09:10:12.605Z,56093.30
2019-03-22T09:12:43.300Z,56106.67
2019-03-22T09:15:14.085Z,56102.56
2019-03-22T09:17:44.751Z,56089.19
2019-03-22T09:20:16.059Z,56125.18
2019-03-22T09:22:47.027Z,56085.08
2019-03-22T09:25:17.887Z,56088.16
2019-03-22T09:27:48.850Z,56111.81
2019-03-22T09:30:19.635Z,56080.96
2019-03-22T09:32:50.345Z,56059.37
2019-03-22T09:35:21.830Z,56020.30
2019-03-22T09:37:52.497Z,56014.13
2019-03-22T09:40:23.199Z,55990.48
2019-03-22T09:42:53.911Z,55979.17
2019-03-22T09:45:24.634Z,55999.73
2019-03-22T09:47:55.837Z,55985.34
2019-03-22T09:50:26.500Z,55978.14
2019-03-22T09:52:57.238Z,55962.72
2019-03-22T09:55:27.970Z,55973.00
2019-03-22T09:57:58.766Z,55978.14
2019-03-22T10:00:32.394Z,55995.62
2019-03-22T10:03:03.953Z,55997.68
2019-03-22T10:05:34.970Z,55983.28
2019-03-22T10:08:05.713Z,55950.38
2019-03-22T10:10:36.801Z,55963.75
2019-03-22T10:13:07.478Z,55952.44
2019-03-22T10:15:38.109Z,55991.51
2019-03-22T10:18:09.085Z,55957.58
2019-03-22T10:20:39.795Z,55986.37
2019-03-22T10:23:10.452Z,55974.03
2019-03-22T10:25:41.560Z,56032.64
2019-03-22T10:28:12.373Z,56003.85
2019-03-22T10:30:43.006Z,55987.40
2019-03-22T10:33:22.719Z,55958.61
2019-03-22T10:35:46.070Z,56012.07
2019-03-22T10:38:30.715Z,56001.79
2019-03-22T10:40:49.459Z,55987.40
2019-03-22T10:43:20.144Z,55960.66
2019-03-22T10:45:50.885Z,55988.43
2019-03-22T10:48:21.936Z,55959.63
2019-03-22T10:50:52.622Z,55993.57
2019-03-22T10:53:23.353Z,56001.79
2019-03-22T10:55:54.309Z,56023.38
2019-03-22T10:58:25.302Z,56032.64
2019-03-22T11:00:56.605Z,56028.52
2019-03-22T11:03:27.977Z,56049.09
2019-03-22T11:05:58.746Z,56008.99
2019-03-22T11:08:29.461Z,56050.12
2019-03-22T11:11:00.091Z,56040.86
2019-03-22T11:13:31.080Z,56057.32
2019-03-22T11:16:01.799Z,56048.06
2019-03-22T11:18:37.374Z,56021.33
2019-03-22T11:21:05.831Z,56055.26
2019-03-22T11:23:36.523Z,56053.20
2019-03-22T11:26:07.167Z,56058.34
2019-03-22T11:28:37.980Z,56060.40
2019-03-22T11:31:08.711Z,56067.60
2019-03-22T11:33:39.457Z,56102.56
2019-03-22T11:36:10.140Z,56101.53
2019-03-22T11:38:41.101Z,56060.40
2019-03-22T11:41:11.805Z,56106.67
2019-03-22T11:43:42.612Z,56109.76
2019-03-22T11:46:13.291Z,56057.32
2019-03-22T11:48:44.335Z,56091.25
2019-03-22T11:51:15.049Z,56059.37
2019-03-22T11:53:46.113Z,56070.68
2019-03-22T11:56:16.872Z,56026.47
2019-03-22T11:58:47.651Z,56062.46
2019-03-22T12:01:20.423Z,56055.26
2019-03-22T12:03:50.664Z,56088.16
2019-03-22T12:06:21.354Z,56090.22
2019-03-22T12:08:52.056Z,56073.77
2019-03-22T12:11:23.027Z,56091.25
2019-03-22T12:13:53.760Z,56084.05
2019-03-22T12:16:24.447Z,56042.92
2019-03-22T12:18:55.176Z,56053.20
2019-03-22T12:21:27.521Z,56077.88
2019-03-22T12:23:58.219Z,56084.05
2019-03-22T12:26:28.937Z,56072.74
2019-03-22T12:28:59.611Z,56073.77
2019-03-22T12:31:30.680Z,56080.96
2019-03-22T12:34:01.357Z,56033.67
2019-03-22T12:36:32.076Z,56056.29
2019-03-22T12:39:03.585Z,56061.43
2019-03-22T12:41:34.320Z,56059.37
2019-03-22T12:44:16.151Z,56049.09
2019-03-22T12:46:49.908Z,56064.51
2019-03-22T12:49:20.578Z,56049.09
2019-03-22T12:51:51.262Z,56057.32
2019-03-22T12:54:21.928Z,56055.26
2019-03-22T12:56:52.731Z,56063.48
2019-03-22T12:59:23.380Z,56056.29
2019-03-22T13:01:54.463Z,56026.47
2019-03-22T13:04:25.403Z,56014.13
2019-03-22T13:06:56.054Z,56026.47
2019-03-22T13:09:27.010Z,55982.25
2019-03-22T13:11:57.911Z,56033.67
2019-03-22T13:14:29.313Z,56035.72
2019-03-22T13:16:59.967Z,56029.55
2019-03-22T13:19:30.666Z,56039.84
2019-03-22T13:22:01.360Z,55997.68
2019-03-22T13:24:32.320Z,56029.55
2019-03-22T13:27:02.991Z,55962.72
2019-03-22T13:29:33.831Z,56027.50
2019-03-22T13:32:04.801Z,56032.64
2019-03-22T13:34:35.512Z,56037.78
2019-03-22T13:37:06.157Z,56020.30
2019-03-22T13:39:36.882Z,55983.28
2019-03-22T13:42:07.574Z,55982.25
2019-03-22T13:44:38.327Z,56028.52
2019-03-22T13:47:09.049Z,56012.07
2019-03-22T13:49:39.743Z,56007.96
2019-03-22T13:52:10.509Z,56012.07
2019-03-22T13:54:41.363Z,55984.31
2019-03-22T13:57:12.434Z,55962.72
2019-03-22T13:59:43.180Z,55971.97
2019-03-22T14:02:13.819Z,56000.76
2019-03-22T14:04:44.507Z,55999.73
2019-03-22T14:07:15.169Z,56007.96
2019-03-22T14:09:45.857Z,55995.62
2019-03-22T14:12:16.522Z,55997.68
2019-03-22T14:14:47.185Z,55997.68
2019-03-22T14:17:17.941Z,56018.24
2019-03-22T14:19:48.634Z,56026.47
2019-03-22T14:22:19.362Z,56028.52
2019-03-22T14:24:50.075Z,56034.70
2019-03-22T14:27:20.812Z,56002.82
2019-03-22T14:29:51.547Z,56011.05
2019-03-22T14:32:22.462Z,56024.41
2019-03-22T14:34:53.100Z,56024.41
2019-03-22T14:37:23.803Z,55999.73
2019-03-22T14:39:54.493Z,56025.44
2019-03-22T14:42:25.226Z,56002.82
2019-03-22T14:44:56.695Z,56047.03
2019-03-22T14:47:27.390Z,56051.14
2019-03-22T14:49:58.094Z,56024.41
2019-03-22T14:52:28.770Z,56018.24
2019-03-22T14:54:59.445Z,56018.24
2019-03-22T14:57:30.396Z,56018.24
2019-03-22T15:00:01.120Z,56034.70
2019-03-22T15:02:31.795Z,56028.52
2019-03-22T15:05:02.482Z,56035.72
2019-03-22T15:07:33.148Z,56054.23
2019-03-22T15:10:04.701Z,56044.98
2019-03-22T15:12:35.432Z,56059.37
2019-03-22T15:15:33.113Z,56044.98
2019-03-22T15:18:25.592Z,56032.64
2019-03-22T15:21:27.646Z,56016.19
2019-03-22T15:24:27.940Z,56030.58
2019-03-22T15:27:16.548Z,56020.30
2019-03-22T15:30:05.294Z,55995.62
2019-03-22T15:32:53.969Z,56000.76
2019-03-22T15:35:42.738Z,56047.03
2019-03-22T15:38:32.136Z,56049.09
2019-03-22T15:41:03.049Z,56044.98
2019-03-22T15:43:33.737Z,56039.84
2019-03-22T15:46:04.436Z,56046.00
2019-03-22T15:48:35.425Z,56033.67
2019-03-22T15:51:06.380Z,56063.48
2019-03-22T15:53:37.435Z,56061.43
2019-03-22T15:56:08.133Z,56051.14
2019-03-22T15:58:39.928Z,56050.12
2019-03-22T16:01:10.645Z,56067.60
2019-03-22T16:03:44.406Z,56060.40
2019-03-22T16:06:14.168Z,56062.46
2019-03-22T16:08:44.939Z,56047.03
2019-03-22T16:11:15.624Z,56066.57
2019-03-22T16:13:46.903Z,56071.71
2019-03-22T16:16:17.680Z,56062.46
2019-03-22T16:18:48.398Z,56085.08
2019-03-22T16:21:19.483Z,56104.62
2019-03-22T16:23:50.140Z,56079.94
2019-03-22T16:26:20.827Z,56087.14
2019-03-22T16:28:51.752Z,56112.84
2019-03-22T16:31:22.456Z,56120.04
2019-03-22T16:33:54.736Z,56064.51
2019-03-22T16:36:25.813Z,56101.53
2019-03-22T16:38:56.899Z,56086.11
2019-03-22T16:41:27.663Z,56096.39
2019-03-22T16:43:58.319Z,56089.19
2019-03-22T16:46:28.990Z,56104.62
2019-03-22T16:49:00.789Z,56063.48
2019-03-22T16:51:31.544Z,56100.50
2019-03-22T16:54:02.568Z,56100.50
2019-03-22T16:56:33.967Z,56112.84
2019-03-22T16:59:04.656Z,56071.71
2019-03-22T17:01:35.323Z,56109.76
2019-03-22T17:04:06.632Z,56103.59
2019-03-22T17:06:37.999Z,56104.62
2019-03-22T17:09:09.575Z,56119.01
2019-03-22T17:11:40.270Z,56116.95
2019-03-22T17:14:10.924Z,56122.09
2019-03-22T17:16:41.599Z,56128.27
2019-03-22T17:19:12.334Z,56142.66
2019-03-22T17:21:43.132Z,56116.95
2019-03-22T17:24:14.004Z,56134.43
2019-03-22T17:26:45.610Z,56107.70
2019-03-22T17:29:16.385Z,56123.12
2019-03-22T17:31:47.374Z,56148.83
2019-03-22T17:34:18.189Z,56143.69
2019-03-22T17:36:49.346Z,56125.18
2019-03-22T17:39:20.411Z,56133.41
2019-03-22T17:41:51.141Z,56124.15
2019-03-22T17:44:21.911Z,56114.90
2019-03-22T17:46:52.565Z,56109.76
2019-03-22T17:49:23.249Z,56140.61
2019-03-22T17:51:53.910Z,56151.91
2019-03-22T17:54:24.932Z,56147.80
2019-03-22T17:56:55.674Z,56101.53
2019-03-22T17:59:26.412Z,56103.59
2019-03-22T18:01:57.142Z,56152.94
2019-03-22T18:04:28.107Z,56136.49
2019-03-22T18:06:58.789Z,56131.35
2019-03-22T18:09:29.529Z,56114.90
2019-03-22T18:12:00.776Z,56129.29
2019-03-22T18:14:31.631Z,56141.63
2019-03-22T18:17:02.388Z,56156.03
2019-03-22T18:19:33.493Z,56147.80
2019-03-22T18:22:04.432Z,56125.18
2019-03-22T18:24:35.119Z,56145.75
2019-03-22T18:27:06.204Z,56132.38
2019-03-22T18:29:36.913Z,56124.15
2019-03-22T18:32:08.849Z,56136.49
2019-03-22T18:34:39.537Z,56123.12
2019-03-22T18:37:10.272Z,56150.89
2019-03-22T18:39:41.065Z,56142.66
2019-03-22T18:42:12.117Z,56158.09
2019-03-22T18:44:42.847Z,56135.46
2019-03-22T18:47:13.586Z,56157.05
2019-03-22T18:49:44.354Z,56135.46
2019-03-22T18:52:16.133Z,56148.83
2019-03-22T18:54:47.069Z,56134.43
2019-03-22T18:57:18.244Z,56168.37
2019-03-22T18:59:49.397Z,56168.37
2019-03-22T19:02:20.062Z,56150.89
2019-03-22T19:04:50.761Z,56149.86
2019-03-22T19:07:21.495Z,56150.89
2019-03-22T19:09:52.383Z,56160.14
2019-03-22T19:12:23.954Z,56162.20
2019-03-22T19:14:55.172Z,56107.70
2019-03-22T19:17:26.326Z,56156.03
2019-03-22T19:19:57.207Z,56145.75
2019-03-22T19:22:27.859Z,56168.37
2019-03-22T19:24:58.584Z,56166.31
2019-03-22T19:27:29.534Z,56172.48
2019-03-22T19:30:00.387Z,56182.76
2019-03-22T19:32:31.065Z,56151.91
2019-03-22T19:35:01.912Z,56177.62
2019-03-22T19:37:32.560Z,56161.17
2019-03-22T19:40:03.408Z,56156.03
2019-03-22T19:42:34.480Z,56134.43
2019-03-22T19:45:06.733Z,56169.39
2019-03-22T19:47:37.684Z,56195.10
2019-03-22T19:50:08.869Z,56188.93
2019-03-22T19:52:39.839Z,56184.82
2019-03-22T19:55:11.645Z,56129.29
2019-03-22T19:57:42.977Z,56134.43
2019-03-22T20:00:14.037Z,56179.68
2019-03-22T20:02:44.765Z,56210.52
2019-03-22T20:05:29.316Z,56195.10
2019-03-22T20:08:01.218Z,56151.91
2019-03-22T20:10:31.959Z,56155.00
2019-03-22T20:13:02.768Z,56145.75
2019-03-22T20:15:33.781Z,56164.25
2019-03-22T20:18:04.697Z,56160.14
2019-03-22T20:20:36.300Z,56171.45
2019-03-22T20:23:07.231Z,56163.23
2019-03-22T20:25:38.028Z,56178.65
2019-03-22T20:28:08.871Z,56152.94
2019-03-22T20:30:39.549Z,56185.85
2019-03-22T20:33:10.219Z,56168.37
2019-03-22T20:35:41.623Z,56148.83
2019-03-22T20:38:12.322Z,56137.52
2019-03-22T20:40:42.975Z,56186.87
2019-03-22T20:43:13.743Z,56182.76
2019-03-22T20:45:44.752Z,56181.73
2019-03-22T20:48:15.456Z,56172.48
2019-03-22T20:50:46.202Z,56187.90
2019-03-22T20:53:17.140Z,56172.48
2019-03-22T20:55:47.831Z,56198.19
2019-03-22T20:58:18.848Z,56179.68
2019-03-22T21:00:49.741Z,56174.54
2019-03-22T21:03:20.445Z,56193.05
2019-03-22T21:05:51.306Z,56215.67
2019-03-22T21:08:22.598Z,56200.24
2019-03-22T21:10:53.329Z,56186.87
2019-03-22T21:13:23.965Z,56216.70
2019-03-22T21:15:54.617Z,56174.54
2019-03-22T21:18:25.430Z,56205.38
2019-03-22T21:20:56.372Z,56208.47
2019-03-22T21:23:35.909Z,56198.19
2019-03-22T21:26:00.336Z,56162.20
2019-03-22T21:28:31.182Z,56197.16
2019-03-22T21:31:02.813Z,56186.87
2019-03-22T21:33:33.765Z,56173.51
2019-03-22T21:36:05.021Z,56186.87
2019-03-22T21:38:35.721Z,56190.99
2019-03-22T21:41:06.966Z,56207.44
2019-03-22T21:43:38.358Z,56174.54
2019-03-22T21:46:09.003Z,56192.02
2019-03-22T21:48:39.738Z,56157.05
2019-03-22T21:51:10.408Z,56178.65
2019-03-22T21:53:41.139Z,56205.38
2019-03-22T21:56:11.852Z,56203.33
2019-03-22T21:58:42.823Z,56168.37
2019-03-22T22:01:13.750Z,56211.55
2019-03-22T22:03:44.730Z,56182.76
2019-03-22T22:06:15.671Z,56197.16
2019-03-22T22:08:46.420Z,56208.47
2019-03-22T22:11:17.613Z,56203.33
2019-03-22T22:13:48.337Z,56189.96
2019-03-22T22:16:19.348Z,56207.44
2019-03-22T22:18:50.045Z,56180.71
2019-03-22T22:21:21.136Z,56180.71
2019-03-22T22:23:52.462Z,56143.69
2019-03-22T22:26:23.152Z,56219.78
2019-03-22T22:28:54.239Z,56203.33
2019-03-22T22:31:25.195Z,56186.87
2019-03-22T22:33:55.851Z,56205.38
2019-03-22T22:36:26.525Z,56201.27
2019-03-22T22:38:57.559Z,56192.02
2019-03-22T22:41:28.290Z,56211.55
2019-03-22T22:43:59.592Z,56189.96
2019-03-22T22:46:30.595Z,56186.87
2019-03-22T22:49:01.547Z,56190.99
2019-03-22T22:51:32.646Z,56174.54
2019-03-22T22:54:03.937Z,56182.76
2019-03-22T22:56:35.014Z,56199.21
2019-03-22T22:59:05.791Z,56228.01
2019-03-22T23:01:36.685Z,56176.59
2019-03-22T23:04:07.359Z,56178.65
2019-03-22T23:06:38.124Z,56200.24
2019-03-22T23:09:09.402Z,56182.76
2019-03-22T23:11:40.640Z,56183.79
2019-03-22T23:14:11.441Z,56206.41
2019-03-22T23:16:42.134Z,56186.87
2019-03-22T23:19:13.108Z,56208.47
2019-03-22T23:21:43.765Z,56180.71
2019-03-22T23:24:14.398Z,56222.87
2019-03-22T23:26:45.398Z,56178.65
2019-03-22T23:29:16.051Z,56199.21
2019-03-22T23:31:49.124Z,56153.97
2019-03-22T23:34:19.176Z,56201.27
2019-03-22T23:36:49.980Z,56162.20
2019-03-22T23:39:20.641Z,56206.41
2019-03-22T23:41:51.388Z,56236.23
2019-03-22T23:44:22.405Z,56213.61
2019-03-22T23:46:53.174Z,56192.02
2019-03-22T23:49:24.135Z,56178.65
2019-03-22T23:51:55.189Z,56213.61
2019-03-22T23:54:25.852Z,56209.50
2019-03-22T23:56:56.525Z,56218.75
2019-03-22T23:59:27.507Z,56214.64
